createdAt,value
2022-10-31T00:01:11.618Z,6.50
2022-10-31T00:03:38.284Z,6.35
2022-10-31T00:06:04.896Z,7.30
2022-10-31T00:08:31.491Z,6.60
2022-10-31T00:10:58.060Z,8.13
2022-10-31T00:13:24.634Z,8.63
2022-10-31T00:15:51.203Z,9.13
2022-10-31T00:18:17.784Z,11.00
2022-10-31T00:20:44.363Z,10.18
2022-10-31T00:23:11.840Z,8.77
2022-10-31T00:25:40.557Z,9.45
2022-10-31T00:28:09.975Z,10.20
2022-10-31T00:30:36.734Z,9.98
2022-10-31T00:33:05.603Z,10.88
2022-10-31T00:35:32.655Z,9.98
2022-10-31T00:37:59.456Z,10.05
2022-10-31T00:40:26.008Z,10.20
2022-10-31T00:42:53.372Z,9.50
2022-10-31T00:45:20.068Z,9.45
2022-10-31T00:47:46.737Z,9.15
2022-10-31T00:50:13.431Z,9.85
2022-10-31T00:52:40.003Z,10.13
2022-10-31T00:55:07.030Z,9.93
2022-10-31T00:57:33.739Z,10.23
2022-10-31T01:00:00.446Z,9.65
2022-10-31T01:02:28.667Z,9.68
2022-10-31T01:04:55.384Z,10.57
2022-10-31T01:07:21.968Z,9.98
2022-10-31T01:09:48.693Z,10.80
2022-10-31T01:12:15.369Z,11.30
2022-10-31T01:14:45.846Z,11.85
2022-10-31T01:17:13.881Z,12.15
2022-10-31T01:19:40.706Z,12.30
2022-10-31T01:22:07.338Z,12.38
2022-10-31T01:24:34.195Z,11.15
2022-10-31T01:27:02.388Z,12.02
2022-10-31T01:29:32.271Z,11.95
2022-10-31T01:31:59.047Z,12.35
2022-10-31T01:34:25.643Z,12.95
2022-10-31T01:36:52.523Z,10.73
2022-10-31T01:39:22.541Z,12.40
2022-10-31T01:41:51.967Z,11.68
2022-10-31T01:44:18.537Z,10.27
2022-10-31T01:47:13.056Z,10.88
2022-10-31T01:50:21.687Z,12.20
2022-10-31T01:52:52.273Z,12.38
2022-10-31T01:55:26.418Z,11.60
2022-10-31T01:58:00.818Z,11.73
2022-10-31T02:00:27.726Z,12.15
2022-10-31T02:02:57.041Z,12.32
2022-10-31T02:05:28.904Z,10.95
2022-10-31T02:08:01.094Z,11.07
2022-10-31T02:10:31.413Z,12.15
2022-10-31T02:13:02.138Z,10.98
2022-10-31T02:15:29.777Z,11.38
2022-10-31T02:17:56.670Z,11.52
2022-10-31T02:20:26.687Z,11.85
2022-10-31T02:23:32.873Z,10.90
2022-10-31T02:26:09.748Z,9.55
2022-10-31T02:31:24.857Z,9.40
2022-10-31T02:33:59.020Z,9.70
2022-10-31T02:36:33.892Z,9.35
2022-10-31T02:39:13.961Z,10.35
2022-10-31T02:42:17.766Z,10.45
2022-10-31T02:44:54.588Z,9.60
2022-10-31T02:47:30.009Z,9.68
2022-10-31T02:50:15.649Z,9.93
2022-10-31T02:52:42.324Z,11.27
2022-10-31T02:55:27.539Z,10.02
2022-10-31T02:58:03.650Z,10.27
2022-10-31T03:00:54.441Z,9.10
2022-10-31T03:03:29.700Z,8.93
2022-10-31T03:06:06.289Z,9.30
2022-10-31T03:08:47.524Z,10.90
2022-10-31T03:11:14.404Z,10.32
2022-10-31T03:13:52.823Z,9.98
2022-10-31T03:16:28.891Z,10.50
2022-10-31T03:19:07.620Z,10.43
2022-10-31T03:21:41.140Z,10.57
2022-10-31T03:24:10.097Z,9.50
2022-10-31T03:26:41.514Z,9.25
2022-10-31T03:29:11.403Z,9.43
2022-10-31T03:31:48.544Z,9.63
2022-10-31T03:34:18.355Z,10.88
2022-10-31T03:36:48.011Z,9.60
2022-10-31T03:39:18.375Z,9.15
2022-10-31T03:41:55.778Z,9.65
2022-10-31T03:44:24.695Z,9.18
2022-10-31T03:46:59.109Z,8.13
2022-10-31T03:49:26.088Z,7.88
2022-10-31T03:52:03.532Z,8.23
2022-10-31T03:54:42.958Z,9.23
2022-10-31T03:57:34.772Z,8.38
2022-10-31T04:00:08.742Z,8.00
2022-10-31T04:03:11.175Z,7.80
2022-10-31T04:05:40.274Z,8.10
2022-10-31T04:08:12.871Z,7.70
2022-10-31T04:10:41.074Z,7.90
2022-10-31T04:13:14.161Z,7.60
2022-10-31T04:15:47.208Z,7.95
2022-10-31T04:18:17.787Z,7.75
2022-10-31T04:20:44.666Z,7.75
2022-10-31T04:23:26.689Z,8.20
2022-10-31T04:25:54.145Z,7.82
2022-10-31T04:28:20.763Z,7.57
2022-10-31T04:30:47.672Z,8.38
2022-10-31T04:33:14.285Z,8.00
2022-10-31T04:35:43.616Z,7.72
2022-10-31T04:38:10.788Z,7.28
2022-10-31T04:40:38.917Z,8.20
2022-10-31T04:43:28.729Z,8.15
2022-10-31T04:45:55.432Z,7.97
2022-10-31T04:48:22.837Z,9.75
2022-10-31T04:50:49.523Z,9.10
2022-10-31T04:53:16.108Z,8.50
2022-10-31T04:56:01.924Z,9.55
2022-10-31T04:58:36.713Z,9.20
2022-10-31T05:01:07.661Z,9.23
2022-10-31T05:03:34.360Z,9.25
2022-10-31T05:06:00.963Z,10.90
2022-10-31T05:08:28.039Z,9.35
2022-10-31T05:10:57.340Z,8.80
2022-10-31T05:13:27.355Z,8.15
2022-10-31T05:16:32.560Z,8.80
2022-10-31T05:19:17.679Z,8.68
2022-10-31T05:22:04.208Z,8.18
2022-10-31T05:24:32.406Z,8.23
2022-10-31T05:26:58.991Z,8.75
2022-10-31T05:29:25.717Z,8.27
2022-10-31T05:31:52.436Z,8.38
2022-10-31T05:34:44.801Z,8.90
2022-10-31T05:37:43.629Z,10.63
2022-10-31T05:40:13.918Z,10.70
2022-10-31T05:42:41.396Z,9.30
2022-10-31T05:45:14.001Z,8.50
2022-10-31T05:47:59.788Z,9.73
2022-10-31T05:51:05.304Z,8.35
2022-10-31T05:53:31.925Z,8.13
2022-10-31T05:55:58.492Z,8.50
2022-10-31T05:58:25.724Z,9.20
2022-10-31T06:01:03.191Z,8.25
2022-10-31T06:03:30.165Z,8.25
2022-10-31T06:05:57.888Z,8.40
2022-10-31T06:08:29.648Z,8.15
2022-10-31T06:10:59.352Z,10.85
2022-10-31T06:13:45.894Z,9.85
2022-10-31T06:16:18.684Z,8.75
2022-10-31T06:18:47.068Z,9.55
2022-10-31T06:21:16.393Z,9.85
2022-10-31T06:23:45.864Z,9.23
2022-10-31T06:26:40.177Z,9.35
2022-10-31T06:29:08.537Z,9.23
2022-10-31T06:31:55.326Z,9.65
2022-10-31T06:34:22.147Z,10.52
2022-10-31T06:36:49.150Z,9.68
2022-10-31T06:39:16.529Z,9.48
2022-10-31T06:41:43.377Z,9.10
2022-10-31T06:44:11.034Z,9.20
2022-10-31T06:46:56.023Z,9.35
2022-10-31T06:49:41.560Z,8.68
2022-10-31T06:52:13.125Z,9.40
2022-10-31T06:54:39.727Z,8.98
2022-10-31T06:57:06.460Z,8.98
2022-10-31T06:59:33.091Z,9.10
2022-10-31T07:02:18.303Z,8.80
2022-10-31T07:04:45.020Z,9.30
2022-10-31T07:07:15.897Z,8.80
2022-10-31T07:09:42.550Z,8.65
2022-10-31T07:12:11.120Z,9.05
2022-10-31T07:14:42.974Z,9.38
2022-10-31T07:17:10.564Z,10.15
2022-10-31T07:19:41.145Z,9.35
2022-10-31T07:22:08.784Z,10.82
2022-10-31T07:24:36.852Z,11.63
2022-10-31T07:27:21.972Z,10.48
2022-10-31T07:29:49.217Z,10.80
2022-10-31T07:32:17.008Z,9.63
2022-10-31T07:34:51.212Z,9.90
2022-10-31T07:37:21.360Z,10.38
2022-10-31T07:39:48.420Z,10.43
2022-10-31T07:42:15.049Z,9.38
2022-10-31T07:44:44.744Z,9.20
2022-10-31T07:47:51.853Z,9.27
2022-10-31T07:50:36.825Z,8.02
2022-10-31T07:53:41.811Z,8.30
2022-10-31T07:56:21.776Z,7.30
2022-10-31T07:58:48.750Z,6.88
2022-10-31T08:01:15.342Z,6.03
2022-10-31T08:03:50.966Z,5.45
2022-10-31T08:06:37.848Z,4.60
2022-10-31T08:09:26.136Z,5.05
2022-10-31T08:11:54.551Z,4.90
2022-10-31T08:14:21.261Z,5.00
2022-10-31T08:16:47.864Z,5.05
2022-10-31T08:19:14.745Z,5.85
2022-10-31T08:21:41.392Z,5.90
2022-10-31T08:24:09.196Z,6.25
2022-10-31T08:26:35.997Z,6.15
2022-10-31T08:29:04.658Z,6.38
2022-10-31T08:31:37.584Z,6.78
2022-10-31T08:34:23.932Z,6.43
2022-10-31T08:37:13.666Z,6.50
2022-10-31T08:39:44.262Z,6.60
2022-10-31T08:42:11.137Z,6.60
2022-10-31T08:44:39.178Z,5.63
2022-10-31T08:47:06.007Z,6.78
2022-10-31T08:49:34.307Z,5.93
2022-10-31T08:52:00.933Z,6.03
2022-10-31T08:54:33.353Z,5.93
2022-10-31T08:57:18.523Z,5.97
2022-10-31T08:59:47.111Z,5.85
2022-10-31T09:02:24.746Z,6.80
2022-10-31T09:04:56.478Z,5.37
2022-10-31T09:07:23.138Z,5.75
2022-10-31T09:09:49.787Z,5.18
2022-10-31T09:12:18.564Z,5.35
2022-10-31T09:14:57.113Z,5.03
2022-10-31T09:17:37.060Z,5.07
2022-10-31T09:20:17.167Z,4.88
2022-10-31T09:22:43.828Z,4.70
2022-10-31T09:25:10.750Z,5.20
2022-10-31T09:27:40.416Z,5.07
2022-10-31T09:30:07.673Z,5.03
2022-10-31T09:32:34.730Z,5.05
2022-10-31T09:35:01.481Z,4.50
2022-10-31T09:37:28.560Z,5.20
2022-10-31T09:39:55.339Z,4.72
2022-10-31T09:42:56.835Z,4.80
2022-10-31T09:45:29.433Z,4.47
2022-10-31T09:48:36.507Z,4.55
2022-10-31T09:51:36.356Z,4.70
2022-10-31T09:54:18.549Z,4.40
2022-10-31T09:56:45.671Z,4.00
2022-10-31T09:59:25.251Z,4.72
2022-10-31T10:02:02.064Z,4.05
2022-10-31T10:04:41.675Z,4.47
2022-10-31T10:07:34.739Z,4.68
2022-10-31T10:10:42.884Z,5.43
2022-10-31T10:13:18.955Z,4.28
2022-10-31T10:15:54.602Z,4.50
2022-10-31T10:18:33.044Z,4.00
2022-10-31T10:21:05.048Z,4.63
2022-10-31T10:23:51.197Z,3.83
2022-10-31T10:26:20.666Z,4.80
2022-10-31T10:28:59.440Z,4.60
2022-10-31T10:31:31.199Z,4.20
2022-10-31T10:36:43.717Z,4.35
2022-10-31T10:39:23.329Z,4.75
2022-10-31T10:42:09.684Z,3.90
2022-10-31T10:45:02.403Z,3.97
2022-10-31T10:47:39.747Z,4.70
2022-10-31T10:50:19.626Z,4.53
2022-10-31T10:53:08.008Z,4.47
2022-10-31T10:55:45.586Z,5.30
2022-10-31T10:58:12.618Z,4.15
2022-10-31T11:00:42.237Z,4.60
2022-10-31T11:03:09.986Z,4.00
2022-10-31T11:05:59.822Z,4.20
2022-10-31T11:08:34.503Z,4.57
2022-10-31T11:11:19.871Z,4.53
2022-10-31T11:13:50.266Z,4.75
2022-10-31T11:16:28.938Z,4.47
2022-10-31T11:19:08.273Z,3.90
2022-10-31T11:21:35.778Z,4.35
2022-10-31T11:24:11.477Z,4.55
2022-10-31T11:26:40.468Z,4.35
2022-10-31T11:29:16.199Z,5.22
2022-10-31T11:31:44.148Z,4.15
2022-10-31T11:34:20.438Z,4.22
2022-10-31T11:36:47.221Z,3.63
2022-10-31T11:39:21.539Z,4.72
2022-10-31T11:41:50.484Z,4.28
2022-10-31T11:44:23.289Z,4.07
2022-10-31T11:46:52.222Z,4.28
2022-10-31T11:49:30.129Z,4.07
2022-10-31T11:52:00.027Z,4.25
2022-10-31T11:54:30.453Z,4.18
2022-10-31T11:56:57.771Z,4.25
2022-10-31T11:59:29.976Z,4.22
2022-10-31T12:01:59.263Z,4.30
2022-10-31T12:04:34.227Z,4.38
2022-10-31T12:07:00.849Z,4.07
2022-10-31T12:09:33.979Z,4.47
2022-10-31T12:12:12.671Z,4.38
2022-10-31T12:15:00.750Z,4.00
2022-10-31T12:17:48.348Z,4.53
2022-10-31T12:21:10.793Z,4.28
2022-10-31T12:23:49.572Z,4.07
2022-10-31T12:26:31.020Z,3.78
2022-10-31T12:29:00.356Z,4.57
2022-10-31T12:32:00.083Z,3.97
2022-10-31T12:34:54.108Z,4.10
2022-10-31T12:37:32.533Z,4.10
2022-10-31T12:40:25.166Z,3.78
2022-10-31T12:43:24.217Z,4.07
2022-10-31T12:45:57.418Z,3.63
2022-10-31T12:48:46.330Z,3.60
2022-10-31T12:51:25.373Z,3.67
2022-10-31T12:54:28.134Z,3.60
2022-10-31T12:57:07.589Z,3.90
2022-10-31T12:59:49.542Z,3.90
2022-10-31T13:02:49.964Z,3.65
2022-10-31T13:05:35.437Z,3.67
2022-10-31T13:08:07.754Z,3.58
2022-10-31T13:10:48.791Z,3.50
2022-10-31T13:13:27.082Z,3.05
2022-10-31T13:16:12.531Z,3.28
2022-10-31T13:18:39.117Z,3.35
2022-10-31T13:21:12.720Z,3.50
2022-10-31T13:23:56.585Z,3.20
2022-10-31T13:26:36.548Z,3.78
2022-10-31T13:29:21.278Z,3.60
2022-10-31T13:31:47.965Z,3.90
2022-10-31T13:34:24.800Z,3.50
2022-10-31T13:37:22.385Z,3.45
2022-10-31T13:40:10.784Z,3.95
2022-10-31T13:43:06.845Z,3.63
2022-10-31T13:45:33.521Z,3.92
2022-10-31T13:48:15.369Z,4.00
2022-10-31T13:50:43.239Z,3.50
2022-10-31T13:53:19.927Z,3.60
2022-10-31T13:56:03.453Z,3.60
2022-10-31T13:58:32.041Z,4.15
2022-10-31T14:01:03.900Z,3.80
2022-10-31T14:06:18.223Z,4.25
2022-10-31T14:08:53.971Z,3.78
2022-10-31T14:11:33.021Z,4.20
2022-10-31T14:14:03.146Z,3.92
2022-10-31T14:16:32.382Z,4.15
2022-10-31T14:19:03.404Z,3.80
2022-10-31T14:21:37.295Z,4.50
2022-10-31T14:24:31.648Z,4.05
2022-10-31T14:27:20.901Z,4.88
2022-10-31T14:29:50.472Z,4.15
2022-10-31T14:32:23.729Z,4.47
2022-10-31T14:35:00.879Z,4.40
2022-10-31T14:37:43.695Z,4.82
2022-10-31T14:40:32.683Z,3.95
2022-10-31T14:43:37.008Z,4.35
2022-10-31T14:46:46.551Z,4.40
2022-10-31T14:49:31.649Z,4.72
2022-10-31T14:52:00.020Z,4.28
2022-10-31T14:54:33.193Z,4.30
2022-10-31T14:57:22.643Z,4.15
2022-10-31T14:59:59.315Z,5.43
2022-10-31T15:02:37.666Z,5.65
2022-10-31T15:05:14.132Z,4.88
2022-10-31T15:07:55.208Z,4.82
2022-10-31T15:10:34.380Z,5.25
2022-10-31T15:13:18.086Z,5.40
2022-10-31T15:15:48.367Z,5.30
2022-10-31T15:18:22.791Z,6.18
2022-10-31T15:20:51.007Z,5.80
2022-10-31T15:23:24.230Z,6.05
2022-10-31T15:25:50.931Z,7.13
2022-10-31T15:28:24.560Z,6.63
2022-10-31T15:30:53.655Z,6.07
2022-10-31T15:33:22.542Z,6.72
2022-10-31T15:35:57.984Z,6.13
2022-10-31T15:38:25.618Z,6.32
2022-10-31T15:41:02.629Z,6.90
2022-10-31T15:43:40.745Z,6.70
2022-10-31T15:46:11.052Z,7.05
2022-10-31T15:48:39.346Z,7.22
2022-10-31T15:51:06.013Z,7.15
2022-10-31T15:53:37.806Z,7.57
2022-10-31T15:56:09.449Z,8.73
2022-10-31T15:58:44.779Z,8.25
2022-10-31T16:01:32.641Z,8.40
2022-10-31T16:04:06.810Z,8.82
2022-10-31T16:06:36.101Z,8.18
2022-10-31T16:09:04.805Z,9.10
2022-10-31T16:11:37.022Z,9.00
2022-10-31T16:14:16.396Z,9.13
2022-10-31T16:16:53.366Z,9.00
2022-10-31T16:19:26.530Z,8.30
2022-10-31T16:22:08.004Z,8.82
2022-10-31T16:24:44.193Z,10.40
2022-10-31T16:27:20.991Z,8.85
2022-10-31T16:29:48.172Z,9.68
2022-10-31T16:32:52.483Z,10.10
2022-10-31T16:35:25.340Z,10.27
2022-10-31T16:37:52.096Z,9.13
2022-10-31T16:40:19.329Z,9.18
2022-10-31T16:42:46.506Z,9.73
2022-10-31T16:45:19.270Z,10.00
2022-10-31T16:50:25.283Z,9.77
2022-10-31T16:53:12.352Z,10.73
2022-10-31T16:55:45.488Z,10.20
2022-10-31T16:58:19.039Z,9.90
2022-10-31T17:00:45.963Z,10.60
2022-10-31T17:03:12.640Z,10.75
2022-10-31T17:05:39.907Z,10.82
2022-10-31T17:08:06.682Z,13.10
2022-10-31T17:10:33.787Z,15.15
2022-10-31T17:13:03.784Z,15.75
2022-10-31T17:15:39.292Z,17.25
2022-10-31T17:18:06.289Z,14.32
2022-10-31T17:20:33.193Z,13.40
2022-10-31T17:23:00.534Z,13.30
2022-10-31T17:25:31.889Z,14.70
2022-10-31T17:27:59.486Z,14.93
2022-10-31T17:30:26.394Z,16.70
2022-10-31T17:32:54.523Z,18.70
2022-10-31T17:35:21.952Z,18.15
2022-10-31T17:37:48.957Z,15.20
2022-10-31T17:40:18.177Z,13.85
2022-10-31T17:42:56.945Z,13.65
2022-10-31T17:45:25.777Z,13.68
2022-10-31T17:47:53.676Z,14.32
2022-10-31T17:50:23.533Z,12.70
2022-10-31T17:52:50.589Z,12.77
2022-10-31T17:55:18.051Z,13.60
2022-10-31T17:57:45.159Z,13.25
2022-10-31T18:00:14.949Z,13.02
2022-10-31T18:02:41.904Z,13.85
2022-10-31T18:05:09.159Z,14.05
2022-10-31T18:07:35.842Z,14.52
2022-10-31T18:10:02.561Z,13.70
2022-10-31T18:12:32.168Z,14.07
2022-10-31T18:14:58.783Z,14.60
2022-10-31T18:17:25.462Z,14.05
2022-10-31T18:19:52.032Z,14.27
2022-10-31T18:22:18.652Z,13.30
2022-10-31T18:24:45.239Z,14.20
2022-10-31T18:27:11.816Z,14.27
2022-10-31T18:29:38.397Z,14.50
2022-10-31T18:32:09.459Z,15.55
2022-10-31T18:34:36.355Z,15.00
2022-10-31T18:37:03.285Z,14.07
2022-10-31T18:39:29.975Z,13.63
2022-10-31T18:41:56.874Z,13.52
2022-10-31T18:44:23.568Z,13.05
2022-10-31T18:46:50.231Z,13.23
2022-10-31T18:49:22.403Z,11.60
2022-10-31T18:51:52.453Z,11.90
2022-10-31T18:54:19.178Z,12.32
2022-10-31T18:56:45.778Z,12.57
2022-10-31T18:59:12.884Z,12.23
2022-10-31T19:01:39.965Z,12.75
2022-10-31T19:04:06.929Z,13.68
2022-10-31T19:06:33.822Z,13.48
2022-10-31T19:09:04.076Z,12.40
2022-10-31T19:11:34.184Z,12.20
2022-10-31T19:14:01.143Z,12.98
2022-10-31T19:16:27.912Z,12.55
2022-10-31T19:18:56.659Z,13.73
2022-10-31T19:21:23.671Z,13.07
2022-10-31T19:23:52.847Z,13.43
2022-10-31T19:26:19.681Z,13.73
2022-10-31T19:28:46.281Z,12.75
2022-10-31T19:31:12.875Z,14.00
2022-10-31T19:33:39.472Z,13.90
2022-10-31T19:36:18.532Z,14.23
2022-10-31T19:38:47.304Z,14.90
2022-10-31T19:41:23.436Z,13.90
2022-10-31T19:43:50.600Z,14.65
2022-10-31T19:46:22.868Z,14.20
2022-10-31T19:49:01.089Z,14.00
2022-10-31T19:51:28.236Z,16.05
2022-10-31T19:53:54.808Z,14.00
2022-10-31T19:56:24.991Z,13.70
2022-10-31T19:58:51.662Z,13.32
2022-10-31T20:01:21.432Z,13.65
2022-10-31T20:03:49.177Z,14.10
2022-10-31T20:06:33.230Z,13.75
2022-10-31T20:09:02.550Z,14.40
2022-10-31T20:11:29.677Z,12.70
2022-10-31T20:13:58.121Z,13.40
2022-10-31T20:16:26.337Z,14.43
2022-10-31T20:18:53.020Z,14.13
2022-10-31T20:21:22.256Z,14.02
2022-10-31T20:23:48.869Z,14.30
2022-10-31T20:26:17.996Z,14.52
2022-10-31T20:28:45.612Z,15.48
2022-10-31T20:31:16.930Z,13.93
2022-10-31T20:33:43.674Z,14.07
2022-10-31T20:36:10.880Z,14.00
2022-10-31T20:38:39.280Z,14.25
2022-10-31T20:41:08.513Z,13.90
2022-10-31T20:43:35.245Z,13.20
2022-10-31T20:46:04.053Z,14.68
2022-10-31T20:48:30.935Z,14.82
2022-10-31T20:50:59.094Z,16.75
2022-10-31T20:53:26.161Z,16.05
2022-10-31T20:56:08.025Z,16.25
2022-10-31T20:58:39.237Z,15.82
2022-10-31T21:01:10.813Z,14.32
2022-10-31T21:03:37.548Z,13.05
2022-10-31T21:06:05.116Z,13.15
2022-10-31T21:08:32.911Z,13.15
2022-10-31T21:11:00.856Z,12.55
2022-10-31T21:13:31.872Z,12.43
2022-10-31T21:16:01.771Z,11.73
2022-10-31T21:18:28.509Z,12.77
2022-10-31T21:20:55.504Z,12.98
2022-10-31T21:23:22.340Z,13.32
2022-10-31T21:25:48.982Z,13.43
2022-10-31T21:28:15.816Z,13.75
2022-10-31T21:30:48.273Z,14.07
2022-10-31T21:33:15.067Z,13.80
2022-10-31T21:35:49.075Z,14.18
2022-10-31T21:38:15.696Z,14.50
2022-10-31T21:43:10.274Z,12.60
2022-10-31T21:45:36.865Z,12.77
2022-10-31T21:48:03.487Z,12.63
2022-10-31T21:50:30.469Z,13.20
2022-10-31T21:53:17.561Z,13.20
2022-10-31T21:55:44.143Z,13.90
2022-10-31T21:58:10.697Z,13.30
2022-10-31T22:00:37.277Z,12.10
2022-10-31T22:03:03.932Z,12.43
2022-10-31T22:05:30.541Z,11.70
2022-10-31T22:07:57.127Z,11.98
2022-10-31T22:10:23.685Z,11.05
2022-10-31T22:12:50.278Z,12.70
2022-10-31T22:15:22.573Z,12.65
2022-10-31T22:17:49.876Z,11.82
2022-10-31T22:20:16.592Z,12.30
2022-10-31T22:22:43.168Z,11.32
2022-10-31T22:25:09.901Z,11.52
2022-10-31T22:27:38.602Z,11.75
2022-10-31T22:30:06.160Z,13.35
2022-10-31T22:32:32.760Z,12.45
2022-10-31T22:34:59.465Z,13.13
2022-10-31T22:37:26.034Z,13.77
2022-10-31T22:39:52.740Z,12.15
2022-10-31T22:42:19.405Z,12.00
2022-10-31T22:44:46.050Z,12.82
2022-10-31T22:47:12.633Z,12.93
2022-10-31T22:49:39.276Z,10.70
2022-10-31T22:52:05.912Z,12.77
2022-10-31T22:54:32.836Z,11.48
2022-10-31T22:56:59.395Z,12.32
2022-10-31T22:59:26.035Z,12.50
2022-10-31T23:01:54.397Z,12.30
2022-10-31T23:04:21.149Z,13.18
2022-10-31T23:06:49.122Z,12.40
2022-10-31T23:09:17.024Z,11.77
2022-10-31T23:11:43.743Z,11.35
2022-10-31T23:14:16.291Z,10.85
2022-10-31T23:16:54.088Z,12.07
2022-10-31T23:19:31.603Z,11.32
2022-10-31T23:22:01.951Z,11.82
2022-10-31T23:24:37.787Z,12.00
2022-10-31T23:27:09.260Z,11.35
2022-10-31T23:29:41.833Z,11.90
2022-10-31T23:32:21.110Z,11.30
2022-10-31T23:34:49.527Z,12.43
2022-10-31T23:37:17.374Z,11.95
2022-10-31T23:39:44.075Z,12.45
2022-10-31T23:42:10.926Z,13.13
2022-10-31T23:44:37.741Z,12.10
2022-10-31T23:47:04.849Z,11.80
2022-10-31T23:49:31.582Z,11.85
2022-10-31T23:51:58.275Z,11.20
2022-10-31T23:54:26.299Z,11.80
2022-10-31T23:56:53.464Z,10.65
2022-10-31T23:59:20.137Z,11.30
